Decoded Metar for YPPD (PORT HEDLAND in AUSTRALIA) (IATA:PHE) | Meteo·Mobile Aviation Weather
aviador You're here:

YPPD Decoded Metar

PORT HEDLAND in AUSTRALIA
Report Time2019-09-17 00:00:00
UTC Time2019-09-17 00:42:37
Flight Rules vfr VFR
Wind220° at 04 kt
W.Decomp.*RWY 18: 3.1 kt HW 2.5 kt RCW
RWY 14: 0.8 kt HW 3.9 kt RCW
Visibility9999 m
Phenomena:N/A
Clouds:N/A
Expected CloudBase > 2,800 ft AGL from Temp-Dew spread
CeilingNone
Temp24°C (ISA +9)
Dew Point17°C (65% RH)
QNH1016 hPa
Density Alt1,224 ft
Elevation20 ft
Report Wrong Elevation
Raw Report
YPPD 170000Z AUTO 22004KT 9999 // NCD 24/17 Q1016=

Extra information for YPPD:More info

Metar Taf Metar & Taf Last 4 Metars F.Rules Stats Wind Profile Meteogram Temp Stats Airport Information Weather charts Add Link Nearby VenuesMetar ALERT Operation Metar Decoded Social comments